Time;durP1;ratioP1;P1;durP2;ratioP2;P2;SDS_P1;SDS_P2;PMS_P1;PMS_P2;Temp;Humidity;BMP_temperature;BMP_pressure;BME280_temperature;BME280_humidity;BME280_pressure;Samples;Min_cycle;Max_cycle;Signal;HPM_P1;HPM_P2
2022/08/21 00:00:51;;;;;;;5.83;5.20;;;15.10;99.90;;;;;;5110246;28;20449;-68
2022/08/21 00:03:18;;;;;;;7.10;5.53;;;15.10;99.90;;;;;;5110303;28;20529;-67
2022/08/21 00:05:50;;;;;;;6.90;5.50;;;15.10;99.90;;;;;;5110367;28;20437;-68
2022/08/21 00:08:17;;;;;;;7.13;6.13;;;15.10;99.90;;;;;;5110178;28;20492;-68
2022/08/21 00:10:45;;;;;;;8.63;6.20;;;15.10;99.90;;;;;;5110076;28;20455;-69
2022/08/21 00:13:12;;;;;;;7.73;6.93;;;15.10;99.90;;;;;;5110236;28;20445;-68
2022/08/21 00:15:41;;;;;;;8.70;6.63;;;15.00;99.90;;;;;;5109852;28;20843;-68
2022/08/21 00:18:10;;;;;;;6.70;6.00;;;15.00;99.90;;;;;;5110236;28;20461;-68
2022/08/21 00:20:38;;;;;;;9.47;6.50;;;15.00;99.90;;;;;;5110315;28;20457;-69
2022/08/21 00:23:06;;;;;;;8.43;6.20;;;15.00;99.90;;;;;;5110469;28;20452;-68
2022/08/21 00:25:34;;;;;;;7.50;6.60;;;14.90;99.90;;;;;;5109854;28;20452;-69
2022/08/21 00:28:01;;;;;;;8.77;7.00;;;14.90;99.90;;;;;;5110130;28;20593;-68
2022/08/21 00:30:30;;;;;;;8.90;6.90;;;14.80;99.90;;;;;;5110396;28;20476;-68
2022/08/21 00:32:58;;;;;;;7.63;5.90;;;14.80;99.90;;;;;;5110268;28;20476;-69
2022/08/21 00:35:30;;;;;;;9.10;6.57;;;14.70;99.90;;;;;;5109798;28;20536;-68
2022/08/21 00:37:57;;;;;;;7.00;6.30;;;14.70;99.90;;;;;;5110018;28;20461;-69
2022/08/21 00:40:29;;;;;;;7.10;6.37;;;14.70;99.90;;;;;;5109746;28;20445;-68
2022/08/21 00:42:57;;;;;;;7.50;6.80;;;14.70;99.90;;;;;;5110233;28;20527;-68
2022/08/21 00:45:24;;;;;;;8.13;6.50;;;14.70;99.90;;;;;;5109699;28;20876;-68
2022/08/21 00:47:53;;;;;;;7.37;6.17;;;14.70;99.90;;;;;;5110027;28;20480;-69
2022/08/21 00:50:21;;;;;;;7.23;6.40;;;14.70;99.90;;;;;;5109862;28;20445;-68
2022/08/21 00:52:48;;;;;;;8.57;6.70;;;14.60;99.90;;;;;;5111177;28;20445;-67
2022/08/21 00:55:16;;;;;;;7.37;6.23;;;14.60;99.90;;;;;;5109296;28;20441;-68
2022/08/21 00:57:52;;;;;;;9.17;6.20;;;14.60;99.90;;;;;;5109884;28;20533;-68
2022/08/21 01:00:23;;;;;;;7.37;6.67;;;14.50;99.90;;;;;;5109961;28;20811;-68
2022/08/21 01:02:50;;;;;;;7.30;5.70;;;14.50;99.90;;;;;;5109783;28;20444;-68
2022/08/21 01:05:17;;;;;;;8.53;7.13;;;14.50;99.90;;;;;;5109315;28;20972;-68
2022/08/21 01:07:44;;;;;;;7.17;6.47;;;14.40;99.90;;;;;;5109954;28;20485;-69
2022/08/21 01:10:12;;;;;;;8.63;6.53;;;14.40;99.90;;;;;;5109870;28;20487;-68
2022/08/21 01:12:40;;;;;;;11.20;7.03;;;14.40;99.90;;;;;;5109772;28;20527;-68
2022/08/21 01:15:14;;;;;;;11.90;6.90;;;14.40;99.90;;;;;;5109357;28;20984;-68
2022/08/21 01:17:41;;;;;;;7.80;6.63;;;14.30;99.90;;;;;;5109652;28;20473;-69
2022/08/21 01:20:11;;;;;;;7.20;6.50;;;14.30;99.90;;;;;;5109510;28;20456;-68
2022/08/21 01:22:40;;;;;;;7.73;6.87;;;14.30;99.90;;;;;;5111043;28;20471;-68
2022/08/21 01:25:09;;;;;;;9.73;7.17;;;14.30;99.90;;;;;;5112999;28;20451;-68
2022/08/21 01:27:36;;;;;;;6.83;5.97;;;14.30;99.90;;;;;;5113018;28;20464;-68
2022/08/21 01:30:11;;;;;;;8.83;6.47;;;14.30;99.90;;;;;;5113123;28;20445;-68
2022/08/21 01:32:38;;;;;;;6.90;6.20;;;14.30;99.90;;;;;;5113045;28;20451;-68
2022/08/21 01:35:06;;;;;;;7.00;6.30;;;14.20;99.90;;;;;;5112825;27;20445;-69
2022/08/21 01:37:33;;;;;;;7.30;6.60;;;14.20;99.90;;;;;;5113009;28;20496;-68
2022/08/21 01:40:01;;;;;;;10.83;7.53;;;14.20;99.90;;;;;;5113059;28;20447;-68
2022/08/21 01:42:28;;;;;;;10.53;6.40;;;14.10;99.90;;;;;;5112896;28;20453;-67
2022/08/21 01:44:56;;;;;;;8.13;6.87;;;14.10;99.90;;;;;;5112545;28;20441;-68
2022/08/21 01:47:23;;;;;;;8.67;7.20;;;14.10;99.90;;;;;;5114225;28;20483;-68
2022/08/21 01:49:50;;;;;;;12.23;7.10;;;14.00;99.90;;;;;;5112758;28;20484;-67
2022/08/21 01:52:18;;;;;;;10.37;7.87;;;14.00;99.90;;;;;;5112721;28;20448;-68
2022/08/21 01:54:45;;;;;;;9.63;8.23;;;14.00;99.90;;;;;;5112382;28;20449;-68
2022/08/21 01:57:14;;;;;;;10.07;7.10;;;14.00;99.90;;;;;;5112505;28;20560;-68
2022/08/21 01:59:41;;;;;;;7.60;6.60;;;13.90;99.90;;;;;;5112454;28;20441;-68
2022/08/21 02:02:08;;;;;;;10.70;7.17;;;13.90;99.90;;;;;;5112519;28;20445;-68
2022/08/21 02:04:35;;;;;;;11.00;8.40;;;13.90;99.90;;;;;;5112244;28;20453;-68
2022/08/21 02:07:03;;;;;;;10.40;6.77;;;13.90;99.90;;;;;;5112514;28;20468;-68
2022/08/21 02:09:30;;;;;;;9.77;7.20;;;13.90;99.90;;;;;;5112392;28;20477;-68
2022/08/21 02:11:57;;;;;;;8.00;6.57;;;13.90;99.90;;;;;;5112436;28;20472;-68
2022/08/21 02:14:25;;;;;;;9.30;8.33;;;13.90;99.90;;;;;;5112333;28;20463;-67
2022/08/21 02:16:52;;;;;;;9.10;8.20;;;13.90;99.90;;;;;;5112689;28;20477;-68
2022/08/21 02:19:20;;;;;;;8.13;7.20;;;13.90;99.90;;;;;;5112303;28;20925;-68
2022/08/21 02:21:46;;;;;;;10.13;7.40;;;13.90;99.90;;;;;;5112361;28;20449;-68
2022/08/21 02:24:13;;;;;;;8.93;7.67;;;14.00;99.90;;;;;;5112022;28;20445;-68
2022/08/21 02:26:40;;;;;;;7.87;6.97;;;13.90;99.90;;;;;;5111683;28;20468;-68
2022/08/21 02:29:07;;;;;;;11.67;8.03;;;13.80;99.90;;;;;;5112104;28;20477;-68
2022/08/21 02:31:36;;;;;;;8.23;6.83;;;13.90;99.90;;;;;;5112066;28;20492;-68
2022/08/21 02:34:03;;;;;;;9.33;7.23;;;14.00;99.90;;;;;;5111932;28;20828;-67
2022/08/21 02:36:30;;;;;;;7.90;7.20;;;14.00;99.90;;;;;;5111399;28;20441;-68
2022/08/21 02:38:57;;;;;;;8.47;6.93;;;14.00;99.90;;;;;;5111818;27;20476;-68
2022/08/21 02:41:24;;;;;;;9.17;7.07;;;14.00;99.90;;;;;;5111581;28;20961;-68
2022/08/21 02:43:50;;;;;;;10.37;6.27;;;13.90;99.90;;;;;;5112079;28;20453;-67
2022/08/21 02:46:20;;;;;;;10.10;7.30;;;13.80;99.90;;;;;;5111347;28;20441;-69
2022/08/21 02:48:48;;;;;;;6.70;5.70;;;13.80;99.90;;;;;;5111561;28;20583;-68
2022/08/21 02:51:18;;;;;;;6.70;6.10;;;13.80;99.90;;;;;;5111417;28;20445;-68
2022/08/21 02:53:46;;;;;;;8.93;6.33;;;13.90;99.90;;;;;;5111385;28;20446;-68
2022/08/21 02:56:15;;;;;;;7.30;6.10;;;13.80;99.90;;;;;;5111395;28;20449;-68
2022/08/21 02:58:45;;;;;;;9.67;6.67;;;13.80;99.90;;;;;;5111355;28;20478;-68
2022/08/21 03:01:12;;;;;;;6.83;6.10;;;13.70;99.90;;;;;;5111337;28;20453;-68
2022/08/21 03:03:41;;;;;;;9.07;6.50;;;13.70;99.90;;;;;;5111327;28;20449;-69
2022/08/21 03:06:12;;;;;;;7.30;6.07;;;13.60;99.90;;;;;;5110813;28;20453;-69
2022/08/21 03:08:39;;;;;;;9.67;6.70;;;13.50;99.90;;;;;;5111208;28;20496;-68
2022/08/21 03:11:06;;;;;;;6.10;5.40;;;13.50;99.90;;;;;;5111337;28;20814;-69
2022/08/21 03:13:33;;;;;;;8.43;6.50;;;13.50;99.90;;;;;;5111128;28;20842;-68
2022/08/21 03:16:00;;;;;;;6.63;5.87;;;13.50;99.90;;;;;;5110848;28;20469;-68
2022/08/21 03:18:27;;;;;;;6.40;5.73;;;13.60;99.90;;;;;;5110897;28;20470;-68
2022/08/21 03:20:54;;;;;;;7.60;5.83;;;13.60;99.90;;;;;;5110845;28;20444;-67
2022/08/21 03:23:22;;;;;;;8.60;6.53;;;13.60;99.90;;;;;;5111200;28;20813;-68
2022/08/21 03:25:50;;;;;;;8.23;5.80;;;13.60;99.90;;;;;;5110733;28;20444;-67
2022/08/21 03:28:21;;;;;;;7.30;6.30;;;13.50;99.90;;;;;;5110694;28;20912;-68
2022/08/21 03:30:49;;;;;;;8.23;5.90;;;13.50;99.90;;;;;;5110901;28;20487;-68
2022/08/21 03:33:16;;;;;;;7.03;6.10;;;13.40;99.90;;;;;;5110554;28;20456;-68
2022/08/21 03:35:45;;;;;;;9.80;7.97;;;13.30;99.90;;;;;;5110544;28;20460;-68
2022/08/21 03:38:13;;;;;;;7.60;6.60;;;13.30;99.90;;;;;;5110639;28;20467;-68
2022/08/21 03:40:41;;;;;;;7.80;6.23;;;13.40;99.90;;;;;;5110786;28;20442;-68
2022/08/21 03:43:09;;;;;;;10.07;7.30;;;13.30;99.90;;;;;;5110618;28;20449;-68
2022/08/21 03:45:36;;;;;;;9.40;6.80;;;13.30;99.90;;;;;;5109807;28;20960;-68
2022/08/21 03:48:05;;;;;;;7.90;7.10;;;13.30;99.90;;;;;;5110364;28;20477;-68
2022/08/21 03:50:35;;;;;;;8.00;6.80;;;13.20;99.90;;;;;;5110263;28;20476;-68
2022/08/21 03:53:02;;;;;;;8.37;7.17;;;13.20;99.90;;;;;;5110626;28;20456;-68
2022/08/21 03:55:29;;;;;;;7.60;6.73;;;13.20;99.90;;;;;;5110226;28;20445;-68
2022/08/21 03:57:57;;;;;;;9.93;6.67;;;13.20;99.90;;;;;;5110502;28;20476;-68
2022/08/21 04:00:25;;;;;;;6.83;6.03;;;13.20;99.90;;;;;;5110386;28;20444;-68
2022/08/21 04:02:52;;;;;;;6.70;6.10;;;13.20;99.90;;;;;;5110504;28;20441;-68
2022/08/21 04:05:27;;;;;;;7.17;5.70;;;13.20;99.90;;;;;;5109975;28;20965;-68
2022/08/21 04:07:55;;;;;;;8.57;6.80;;;13.30;99.90;;;;;;5110729;28;20457;-68
2022/08/21 04:10:23;;;;;;;11.97;7.20;;;13.30;99.90;;;;;;5110509;28;20473;-67
2022/08/21 04:12:50;;;;;;;7.27;5.93;;;13.40;99.90;;;;;;5110595;28;20809;-68
2022/08/21 04:15:19;;;;;;;6.83;6.20;;;13.40;99.90;;;;;;5109954;28;20973;-67
2022/08/21 04:17:46;;;;;;;7.30;6.47;;;13.40;99.90;;;;;;5110381;28;20469;-68
2022/08/21 04:20:13;;;;;;;7.60;6.67;;;13.40;99.90;;;;;;5110047;28;20449;-68
2022/08/21 04:22:40;;;;;;;11.07;6.60;;;13.50;99.90;;;;;;5110322;28;20437;-67
2022/08/21 04:25:08;;;;;;;7.50;6.07;;;13.50;99.90;;;;;;5109834;28;20453;-68
2022/08/21 04:27:35;;;;;;;8.23;6.17;;;13.50;99.90;;;;;;5109934;28;20461;-68
2022/08/21 04:30:01;;;;;;;7.30;6.60;;;13.50;99.90;;;;;;5109858;28;20484;-68
2022/08/21 04:32:30;;;;;;;9.03;6.00;;;13.50;99.90;;;;;;5109873;28;20938;-68
2022/08/21 04:35:05;;;;;;;6.60;5.97;;;13.50;99.90;;;;;;5109580;28;20852;-68
2022/08/21 04:37:32;;;;;;;7.87;6.20;;;13.50;99.90;;;;;;5109876;28;20465;-68
2022/08/21 04:39:59;;;;;;;7.30;6.27;;;13.50;99.90;;;;;;5109858;28;20445;-68
2022/08/21 04:42:27;;;;;;;8.50;7.00;;;13.50;99.90;;;;;;5109980;28;20456;-68
2022/08/21 04:44:54;;;;;;;8.97;6.40;;;13.60;99.90;;;;;;5109773;28;20455;-68
2022/08/21 04:47:22;;;;;;;7.30;6.60;;;13.50;99.90;;;;;;5109733;28;20465;-68
2022/08/21 04:49:51;;;;;;;8.00;6.20;;;13.50;99.90;;;;;;5109822;28;20477;-68
2022/08/21 04:52:22;;;;;;;9.50;6.67;;;13.50;99.90;;;;;;5109792;28;20449;-68
2022/08/21 04:54:51;;;;;;;8.37;6.57;;;13.50;99.90;;;;;;5109546;28;20453;-68
2022/08/21 04:57:19;;;;;;;7.03;6.33;;;13.40;99.90;;;;;;5110442;28;20485;-68
2022/08/21 04:59:50;;;;;;;6.37;5.67;;;13.30;99.90;;;;;;5113826;28;20437;-68
2022/08/21 05:02:18;;;;;;;11.27;7.57;;;13.30;99.90;;;;;;5113604;28;20449;-68
2022/08/21 05:04:48;;;;;;;8.87;7.07;;;13.30;99.90;;;;;;5113184;28;20437;-68
2022/08/21 05:07:21;;;;;;;9.73;6.77;;;13.40;99.90;;;;;;5113401;28;20850;-68
2022/08/21 05:09:48;;;;;;;7.57;6.83;;;13.40;99.90;;;;;;5113516;28;20485;-68
2022/08/21 05:12:14;;;;;;;6.93;6.23;;;13.40;99.90;;;;;;5113561;28;20441;-67
2022/08/21 05:14:42;;;;;;;8.00;7.10;;;13.30;99.90;;;;;;5112974;28;20441;-67
2022/08/21 05:17:09;;;;;;;7.83;6.93;;;13.30;99.90;;;;;;5113445;28;20477;-68
2022/08/21 05:19:36;;;;;;;7.37;6.67;;;13.30;99.90;;;;;;5113015;28;20535;-68
2022/08/21 05:22:02;;;;;;;6.33;5.73;;;13.30;99.90;;;;;;5113557;28;20444;-68
2022/08/21 05:24:31;;;;;;;7.90;7.10;;;13.40;99.90;;;;;;5113011;28;20437;-67
2022/08/21 05:26:58;;;;;;;8.63;6.87;;;13.40;99.90;;;;;;5113291;28;20957;-68
2022/08/21 05:29:25;;;;;;;7.53;6.70;;;13.40;99.90;;;;;;5112875;28;20563;-68
2022/08/21 05:31:52;;;;;;;8.40;6.67;;;13.50;99.90;;;;;;5113150;27;20440;-67
2022/08/21 05:34:22;;;;;;;8.00;6.53;;;13.70;99.90;;;;;;5112764;28;20528;-68
2022/08/21 05:36:48;;;;;;;6.93;6.20;;;13.90;99.90;;;;;;5112882;28;20465;-68
2022/08/21 05:39:16;;;;;;;7.23;6.27;;;14.00;99.90;;;;;;5112964;28;20974;-68
2022/08/21 05:41:44;;;;;;;10.07;6.97;;;14.00;99.90;;;;;;5112853;28;20761;-68
2022/08/21 05:44:11;;;;;;;7.10;6.13;;;14.00;99.90;;;;;;5112861;28;20441;-68
2022/08/21 05:46:37;;;;;;;7.43;6.07;;;14.10;99.90;;;;;;5112223;28;20445;-67
2022/08/21 05:49:04;;;;;;;6.90;6.30;;;14.10;99.90;;;;;;5112890;28;20441;-68
2022/08/21 05:51:31;;;;;;;8.70;7.60;;;14.20;99.90;;;;;;5112848;28;20445;-68
2022/08/21 05:53:58;;;;;;;7.47;6.67;;;14.30;99.90;;;;;;5112727;28;20445;-68
2022/08/21 05:56:25;;;;;;;7.10;6.40;;;14.40;99.90;;;;;;5112302;28;20472;-68
2022/08/21 05:58:53;;;;;;;6.87;6.27;;;14.50;99.90;;;;;;5112741;28;20449;-68
2022/08/21 06:01:20;;;;;;;6.87;5.90;;;14.60;99.90;;;;;;5112666;28;20446;-69
2022/08/21 06:03:47;;;;;;;6.70;6.03;;;14.60;99.90;;;;;;5112935;28;20818;-68
2022/08/21 06:06:13;;;;;;;7.13;6.47;;;14.70;99.90;;;;;;5112331;28;20445;-68
2022/08/21 06:08:40;;;;;;;6.17;5.50;;;14.80;99.90;;;;;;5112095;28;20492;-67
2022/08/21 06:11:08;;;;;;;6.97;6.07;;;14.90;99.90;;;;;;5112291;28;20488;-68
2022/08/21 06:13:35;;;;;;;7.17;6.47;;;15.00;99.90;;;;;;5112113;27;20453;-69
2022/08/21 06:16:07;;;;;;;6.70;6.00;;;15.10;99.90;;;;;;5111883;28;20456;-68
2022/08/21 06:18:34;;;;;;;6.87;6.20;;;15.20;99.90;;;;;;5113252;27;21043;-68
2022/08/21 06:21:00;;;;;;;5.40;4.90;;;15.20;99.90;;;;;;5114228;28;20440;-68
2022/08/21 06:23:27;;;;;;;6.00;5.50;;;15.30;99.90;;;;;;5112142;28;20451;-69
2022/08/21 06:25:54;;;;;;;7.17;5.77;;;15.40;99.90;;;;;;5110860;28;20813;-68
2022/08/21 06:28:21;;;;;;;6.40;5.80;;;15.50;99.90;;;;;;5111797;28;20484;-68
2022/08/21 06:30:48;;;;;;;7.10;5.73;;;15.60;99.90;;;;;;5111669;27;20481;-68
2022/08/21 06:33:16;;;;;;;6.40;5.60;;;15.60;99.90;;;;;;5110932;28;20456;-68
2022/08/21 06:35:43;;;;;;;7.60;5.77;;;15.70;99.90;;;;;;5111604;28;20461;-68
2022/08/21 06:38:10;;;;;;;5.53;5.00;;;15.80;99.90;;;;;;5111712;28;20468;-68
2022/08/21 06:40:38;;;;;;;5.63;5.13;;;15.90;99.90;;;;;;5111837;28;20446;-68
2022/08/21 06:43:11;;;;;;;6.00;5.40;;;16.00;99.90;;;;;;5111484;28;20445;-68
2022/08/21 06:45:38;;;;;;;5.83;5.00;;;16.10;99.90;;;;;;5111276;27;20454;-68
2022/08/21 06:48:06;;;;;;;8.27;5.27;;;16.20;99.90;;;;;;5111592;28;20473;-68
2022/08/21 06:50:35;;;;;;;6.03;5.37;;;16.30;99.90;;;;;;5111429;28;21033;-68
2022/08/21 06:53:05;;;;;;;5.83;5.17;;;16.40;99.90;;;;;;5111376;28;20437;-68
2022/08/21 06:55:32;;;;;;;6.80;5.17;;;16.50;99.90;;;;;;5110976;28;20441;-68
2022/08/21 06:57:59;;;;;;;6.73;5.53;;;16.60;99.90;;;;;;5110999;28;20477;-69
2022/08/21 07:00:27;;;;;;;6.83;5.63;;;16.70;99.90;;;;;;5111259;28;20444;-68
2022/08/21 07:02:54;;;;;;;6.80;6.20;;;16.80;99.90;;;;;;5111272;28;20445;-68
2022/08/21 07:05:21;;;;;;;8.37;5.87;;;16.90;99.90;;;;;;5110954;28;20448;-69
2022/08/21 07:07:49;;;;;;;8.40;5.23;;;17.00;99.90;;;;;;5111143;28;20576;-69
2022/08/21 07:10:16;;;;;;;7.60;5.10;;;17.10;99.90;;;;;;5110911;28;20484;-68
2022/08/21 07:12:43;;;;;;;5.83;5.23;;;17.20;99.90;;;;;;5111373;28;20449;-68
2022/08/21 07:15:11;;;;;;;5.57;4.97;;;17.30;99.90;;;;;;5110910;28;20855;-68
2022/08/21 07:17:37;;;;;;;7.30;5.30;;;17.50;99.90;;;;;;5111108;28;20481;-68
2022/08/21 07:20:05;;;;;;;6.17;5.00;;;17.70;99.90;;;;;;5110026;28;20961;-68
2022/08/21 07:22:32;;;;;;;5.77;5.00;;;17.80;99.90;;;;;;5111083;28;20835;-69
2022/08/21 07:25:00;;;;;;;7.50;4.67;;;17.90;99.90;;;;;;5110374;28;20445;-68
2022/08/21 07:27:27;;;;;;;5.83;5.10;;;18.10;99.90;;;;;;5111019;28;20465;-69
2022/08/21 07:29:54;;;;;;;4.30;3.80;;;18.20;99.90;;;;;;5110695;28;20484;-68
2022/08/21 07:32:21;;;;;;;6.40;5.20;;;18.40;99.90;;;;;;5111014;28;20463;-69
2022/08/21 07:34:48;;;;;;;5.90;4.83;;;18.40;99.90;;;;;;5110380;28;20448;-68
2022/08/21 07:37:15;;;;;;;8.83;4.30;;;18.50;99.90;;;;;;5110586;28;20496;-68
2022/08/21 07:39:41;;;;;;;6.73;4.87;;;18.70;99.90;;;;;;5110590;28;20449;-68
2022/08/21 07:42:10;;;;;;;7.20;4.83;;;18.80;99.90;;;;;;5110403;28;20456;-68
2022/08/21 07:44:37;;;;;;;8.50;4.60;;;18.90;99.90;;;;;;5110428;28;20837;-66
2022/08/21 07:47:04;;;;;;;7.23;5.50;;;19.00;99.90;;;;;;5110399;28;20457;-66
2022/08/21 07:49:31;;;;;;;6.00;4.70;;;19.20;99.90;;;;;;5110397;28;20955;-67
2022/08/21 07:51:58;;;;;;;8.00;5.27;;;19.30;99.90;;;;;;5110409;28;20824;-67
2022/08/21 07:54:25;;;;;;;5.87;5.03;;;19.50;99.90;;;;;;5110622;28;20453;-65
2022/08/21 07:56:52;;;;;;;7.57;5.57;;;19.70;99.90;;;;;;5110550;28;20457;-67
2022/08/21 07:59:20;;;;;;;6.57;5.83;;;19.80;99.90;;;;;;5110995;28;20471;-65
2022/08/21 08:01:47;;;;;;;8.43;5.85;;;20.00;99.90;;;;;;5110180;28;20430;-67
2022/08/21 08:04:15;;;;;;;7.73;4.60;;;20.10;99.90;;;;;;5110607;28;20696;-66
2022/08/21 08:06:42;;;;;;;7.47;4.73;;;20.10;99.90;;;;;;5110005;28;20468;-66
2022/08/21 08:09:09;;;;;;;7.50;5.30;;;20.30;99.90;;;;;;5108172;28;20461;-66
2022/08/21 08:11:40;;;;;;;8.23;5.50;;;20.30;99.90;;;;;;5110110;28;20500;-66
2022/08/21 08:14:07;;;;;;;6.73;5.57;;;20.40;99.90;;;;;;5110011;28;20438;-65
2022/08/21 08:16:35;;;;;;;8.87;5.70;;;20.60;99.90;;;;;;5109947;28;20863;-68
2022/08/21 08:19:02;;;;;;;7.90;5.57;;;20.60;99.90;;;;;;5109933;28;20438;-67
2022/08/21 08:21:29;;;;;;;9.13;6.33;;;20.80;99.90;;;;;;5107777;28;20442;-67
2022/08/21 08:23:56;;;;;;;7.60;6.43;;;20.90;99.90;;;;;;5108695;28;20456;-66
2022/08/21 08:26:23;;;;;;;6.53;5.73;;;21.00;99.90;;;;;;5109612;28;21074;-66
2022/08/21 08:28:50;;;;;;;10.73;5.27;;;21.10;99.90;;;;;;5110015;28;20452;-66
2022/08/21 08:31:16;;;;;;;6.83;5.67;;;21.30;99.90;;;;;;5110980;28;20473;-66
2022/08/21 08:33:45;;;;;;;8.30;7.10;;;21.30;99.90;;;;;;5114185;27;20443;-67
2022/08/21 08:36:14;;;;;;;7.03;6.33;;;21.40;99.90;;;;;;5114196;28;20445;-67
2022/08/21 08:38:41;;;;;;;8.70;5.70;;;21.50;99.90;;;;;;5114343;28;20467;-67
2022/08/21 08:41:14;;;;;;;10.57;7.27;;;21.60;99.90;;;;;;5114098;28;20464;-67
2022/08/21 08:43:45;;;;;;;7.60;6.20;;;21.60;99.90;;;;;;5114210;28;20444;-67
2022/08/21 08:46:14;;;;;;;8.70;6.93;;;21.70;99.90;;;;;;5113519;28;20452;-67
2022/08/21 08:48:50;;;;;;;7.83;6.20;;;21.90;99.90;;;;;;5114265;28;20461;-66
2022/08/21 08:51:23;;;;;;;6.63;5.97;;;21.90;99.90;;;;;;5113896;28;20484;-66
2022/08/21 08:53:56;;;;;;;7.13;5.73;;;22.10;99.90;;;;;;5114073;28;20532;-66
2022/08/21 08:56:28;;;;;;;10.90;6.90;;;22.20;99.90;;;;;;5113645;28;20447;-66
2022/08/21 08:58:59;;;;;;;9.77;6.47;;;22.30;99.90;;;;;;5113833;28;20445;-68
2022/08/21 09:01:26;;;;;;;8.43;5.20;;;22.50;99.90;;;;;;5113787;28;20907;-72
2022/08/21 09:03:54;;;;;;;8.53;6.10;;;22.50;99.90;;;;;;5110433;27;20506;-72
2022/08/21 09:06:38;;;;;;;8.60;5.40;;;22.50;99.90;;;;;;5104938;27;20441;-66
2022/08/21 09:09:15;;;;;;;8.57;6.43;;;22.60;99.90;;;;;;5092022;28;20452;-68
2022/08/21 09:11:58;;;;;;;12.07;6.47;;;22.60;99.90;;;;;;5094181;28;20520;-68
2022/08/21 09:14:34;;;;;;;7.17;6.47;;;22.80;99.90;;;;;;5098613;28;20441;-69
2022/08/21 09:17:13;;;;;;;7.30;5.50;;;22.90;99.90;;;;;;5104040;28;20526;-69
2022/08/21 09:19:56;;;;;;;9.00;6.33;;;23.10;99.90;;;;;;5108702;28;20449;-70
2022/08/21 09:22:37;;;;;;;8.40;6.80;;;23.20;99.90;;;;;;5097725;28;20504;-70
2022/08/21 09:25:09;;;;;;;8.10;6.60;;;23.20;99.90;;;;;;5100694;28;20449;-68
2022/08/21 09:27:36;;;;;;;7.63;6.80;;;23.40;99.90;;;;;;5102027;28;20456;-68
2022/08/21 09:30:06;;;;;;;10.53;6.90;;;23.30;99.90;;;;;;5100443;28;20450;-69
2022/08/21 09:32:35;;;;;;;10.17;6.77;;;23.30;99.90;;;;;;5096090;28;20797;-68
2022/08/21 09:35:08;;;;;;;7.60;6.27;;;23.70;99.90;;;;;;5100443;28;20450;-70
2022/08/21 09:37:46;;;;;;;6.80;6.00;;;24.10;99.90;;;;;;5103931;28;20480;-69
2022/08/21 09:40:27;;;;;;;9.63;6.37;;;24.60;99.90;;;;;;5099631;28;20445;-66
2022/08/21 09:43:00;;;;;;;8.70;5.70;;;25.20;99.90;;;;;;5108361;28;20536;-68
2022/08/21 09:45:28;;;;;;;6.10;4.50;;;26.20;97.70;;;;;;5109191;28;20449;-69
2022/08/21 09:47:55;;;;;;;10.13;4.80;;;26.80;97.40;;;;;;5097090;28;20473;-67
2022/08/21 09:50:27;;;;;;;6.40;4.73;;;27.70;95.00;;;;;;5097960;28;22420;-68
2022/08/21 09:52:58;;;;;;;5.83;4.70;;;28.50;93.80;;;;;;5106203;28;20442;-68
2022/08/21 09:58:18;;;;;;;5.90;4.23;;;29.50;88.20;;;;;;5100555;28;20469;-68
2022/08/21 10:00:45;;;;;;;9.03;5.47;;;29.40;88.20;;;;;;5091886;28;20448;-68
2022/08/21 10:03:16;;;;;;;6.87;4.17;;;29.50;87.20;;;;;;5098682;28;20469;-68
2022/08/21 10:05:56;;;;;;;6.03;3.67;;;29.30;85.50;;;;;;5092646;28;20504;-67
2022/08/21 10:08:25;;;;;;;6.43;3.50;;;29.10;84.70;;;;;;5105445;28;21184;-67
2022/08/21 10:10:55;;;;;;;7.10;3.97;;;29.60;83.60;;;;;;5096989;28;20478;-68
2022/08/21 10:13:29;;;;;;;8.93;4.40;;;29.90;83.90;;;;;;5105178;28;21221;-70
2022/08/21 10:16:09;;;;;;;6.63;4.20;;;30.20;85.80;;;;;;5100805;28;20832;-72
2022/08/21 10:18:40;;;;;;;6.73;4.30;;;30.20;84.10;;;;;;5099893;28;20456;-69
2022/08/21 10:21:16;;;;;;;5.87;3.90;;;30.50;81.90;;;;;;5107431;28;20448;-68
2022/08/21 10:23:57;;;;;;;7.80;3.90;;;30.60;77.80;;;;;;5098092;28;20442;-68
2022/08/21 10:26:43;;;;;;;6.47;4.17;;;30.60;79.90;;;;;;5105259;28;20440;-69
2022/08/21 10:29:21;;;;;;;7.50;3.90;;;30.40;77.90;;;;;;5110222;28;20437;-68
2022/08/21 10:31:55;;;;;;;5.77;4.30;;;30.70;79.70;;;;;;5104958;28;20539;-69
2022/08/21 10:34:37;;;;;;;4.90;4.00;;;30.60;75.90;;;;;;5103005;28;20536;-67
2022/08/21 10:37:19;;;;;;;9.20;4.70;;;30.90;78.20;;;;;;5109185;28;20453;-69
2022/08/21 10:39:56;;;;;;;4.93;3.57;;;30.80;75.90;;;;;;5108806;28;20447;-69
2022/08/21 10:42:30;;;;;;;8.30;3.70;;;31.20;74.90;;;;;;5097608;28;20817;-68
2022/08/21 10:45:13;;;;;;;5.80;4.20;;;31.30;75.30;;;;;;5098839;28;21290;-67
2022/08/21 10:47:47;;;;;;;6.03;4.33;;;31.50;73.60;;;;;;5101786;27;20470;-68
2022/08/21 10:50:25;;;;;;;6.97;3.93;;;31.70;71.90;;;;;;5107127;28;20445;-68
2022/08/21 10:53:02;;;;;;;5.80;3.83;;;32.10;70.80;;;;;;5109604;28;21053;-69
2022/08/21 10:55:34;;;;;;;6.93;4.53;;;32.20;68.40;;;;;;5101653;28;20490;-68
2022/08/21 10:58:05;;;;;;;5.73;3.30;;;32.20;67.20;;;;;;5101886;28;21009;-69
2022/08/21 11:00:39;;;;;;;4.13;3.30;;;32.20;68.20;;;;;;5091003;28;21205;-68
2022/08/21 11:03:11;;;;;;;6.30;3.70;;;32.30;65.50;;;;;;5107244;28;20442;-67
2022/08/21 11:05:42;;;;;;;9.03;3.83;;;32.30;66.20;;;;;;5103473;27;21091;-68
2022/08/21 11:08:14;;;;;;;6.63;4.50;;;32.30;65.50;;;;;;5108557;28;20465;-68
2022/08/21 11:10:46;;;;;;;4.80;3.87;;;32.30;65.20;;;;;;5102301;27;20532;-67
2022/08/21 11:13:18;;;;;;;5.87;4.07;;;32.30;68.80;;;;;;5109922;28;20840;-68
2022/08/21 11:15:51;;;;;;;6.97;4.20;;;32.60;64.80;;;;;;5112406;28;20452;-69
2022/08/21 11:18:25;;;;;;;6.03;4.00;;;32.50;60.70;;;;;;5102202;27;20998;-69
2022/08/21 11:21:02;;;;;;;5.90;4.47;;;31.70;62.00;;;;;;5104850;28;20433;-68
2022/08/21 11:23:40;;;;;;;5.30;3.30;;;32.10;64.10;;;;;;5103292;28;20453;-69
2022/08/21 11:26:15;;;;;;;6.80;3.90;;;32.60;63.60;;;;;;5109412;28;20437;-67
2022/08/21 11:28:47;;;;;;;5.33;4.00;;;32.40;61.30;;;;;;5112127;28;20464;-67
2022/08/21 11:31:28;;;;;;;6.17;4.17;;;32.90;62.10;;;;;;5100251;28;21025;-67
2022/08/21 11:34:10;;;;;;;6.53;3.83;;;32.60;59.90;;;;;;5106034;28;21124;-67
2022/08/21 11:36:45;;;;;;;5.53;3.80;;;31.70;60.20;;;;;;5105914;28;20441;-67
2022/08/21 11:39:23;;;;;;;7.63;3.90;;;30.90;62.40;;;;;;5102898;28;20894;-67
2022/08/21 11:42:02;;;;;;;7.10;4.50;;;30.90;63.00;;;;;;5103413;27;20445;-68
2022/08/21 11:44:39;;;;;;;7.27;3.77;;;30.90;61.90;;;;;;5106000;27;20445;-67
2022/08/21 11:47:15;;;;;;;8.07;4.63;;;31.00;64.30;;;;;;5108712;28;20465;-68
2022/08/21 11:49:53;;;;;;;4.67;3.20;;;31.60;59.80;;;;;;5108898;28;20498;-68
2022/08/21 11:52:24;;;;;;;6.87;4.13;;;31.60;61.90;;;;;;5109911;28;20480;-67
2022/08/21 11:54:58;;;;;;;5.40;3.50;;;32.40;60.50;;;;;;5107571;28;20441;-66
2022/08/21 11:57:30;;;;;;;7.67;4.10;;;32.40;57.30;;;;;;5100117;28;20487;-67
2022/08/21 12:00:03;;;;;;;3.83;3.23;;;32.70;63.30;;;;;;5105033;28;21120;-66
2022/08/21 12:02:35;;;;;;;5.60;3.67;;;33.60;57.30;;;;;;5094244;28;20441;-66
2022/08/21 12:05:06;;;;;;;5.20;3.60;;;34.50;56.90;;;;;;5094408;28;20806;-66
2022/08/21 12:07:36;;;;;;;6.67;3.40;;;35.00;54.30;;;;;;5097688;28;20464;-65
2022/08/21 12:10:08;;;;;;;6.33;2.93;;;35.00;54.10;;;;;;5105044;28;20958;-67
2022/08/21 12:12:36;;;;;;;6.43;3.27;;;35.40;53.10;;;;;;5098509;28;20998;-67
2022/08/21 12:15:25;;;;;;;5.17;3.17;;;35.70;51.70;;;;;;5093251;28;20519;-67
2022/08/21 12:17:59;;;;;;;4.53;3.20;;;36.00;50.10;;;;;;5090303;28;20477;-67
2022/08/21 12:20:38;;;;;;;6.10;3.27;;;35.80;48.50;;;;;;5096751;28;20481;-68
2022/08/21 12:23:17;;;;;;;5.03;3.40;;;34.70;50.70;;;;;;5094693;28;20529;-67
2022/08/21 12:25:48;;;;;;;4.60;2.80;;;35.00;51.30;;;;;;5096415;28;20593;-66
2022/08/21 12:28:22;;;;;;;4.60;2.57;;;35.40;51.10;;;;;;5096540;28;20560;-66
2022/08/21 12:30:50;;;;;;;5.33;3.20;;;35.60;49.60;;;;;;5095462;28;20545;-67
2022/08/21 12:33:25;;;;;;;5.00;2.80;;;36.10;49.20;;;;;;5098969;28;20567;-66
2022/08/21 12:35:54;;;;;;;5.27;3.63;;;35.90;47.30;;;;;;5099967;28;20445;-67
2022/08/21 12:38:24;;;;;;;5.93;3.03;;;36.20;50.30;;;;;;5099492;28;21013;-68
2022/08/21 12:40:56;;;;;;;4.33;3.30;;;36.00;46.90;;;;;;5102265;28;20469;-68
2022/08/21 12:43:30;;;;;;;4.87;2.77;;;36.00;49.20;;;;;;5097335;28;20441;-68
2022/08/21 12:45:58;;;;;;;5.00;3.10;;;36.60;47.90;;;;;;5092884;28;20461;-68
2022/08/21 12:48:31;;;;;;;5.77;3.23;;;36.10;48.10;;;;;;5099911;28;20529;-68
2022/08/21 12:51:06;;;;;;;4.43;3.10;;;36.30;47.70;;;;;;5097765;28;20449;-67
2022/08/21 12:53:39;;;;;;;4.33;2.53;;;36.60;45.90;;;;;;5094755;28;20440;-67
2022/08/21 12:56:11;;;;;;;3.80;3.13;;;36.30;45.90;;;;;;5095932;28;20452;-69
2022/08/21 12:58:41;;;;;;;6.93;3.47;;;36.10;44.80;;;;;;5096833;28;20990;-68
2022/08/21 13:01:20;;;;;;;4.33;2.73;;;36.20;46.90;;;;;;5098723;28;21047;-70